Time;durP1;ratioP1;P1;durP2;ratioP2;P2;SDS_P1;SDS_P2;PMS_P1;PMS_P2;Temp;Humidity;BMP_temperature;BMP_pressure;BME280_temperature;BME280_humidity;BME280_pressure;Samples;Min_cycle;Max_cycle;Signal;HPM_P1;HPM_P2
2021/07/19 00:00:20;;;;;;;7.90;4.80;;;;;;;;;;5006352;28;20180;-57
2021/07/19 00:02:46;;;;;;;12.27;5.22;;;;;;;;;;5004814;28;20183;-57
2021/07/19 00:05:12;;;;;;;9.65;5.30;;;;;;;;;;5006195;28;20187;-59
2021/07/19 00:07:37;;;;;;;7.35;4.63;;;;;;;;;;5006045;28;20218;-59
2021/07/19 00:10:05;;;;;;;9.68;5.55;;;;;;;;;;5008914;28;20607;-56
2021/07/19 00:12:30;;;;;;;10.35;4.72;;;;;;;;;;5003779;28;20215;-56
2021/07/19 00:14:56;;;;;;;8.27;4.90;;;;;;;;;;5003522;28;20219;-56
2021/07/19 00:17:21;;;;;;;9.68;4.80;;;;;;;;;;5005496;28;20243;-56
2021/07/19 00:19:48;;;;;;;8.07;4.80;;;;;;;;;;5004505;28;20325;-56
2021/07/19 00:22:13;;;;;;;12.27;4.72;;;;;;;;;;5006928;28;20265;-57
2021/07/19 00:24:39;;;;;;;8.55;5.25;;;;;;;;;;5008464;28;20641;-57
2021/07/19 00:27:04;;;;;;;11.90;5.88;;;;;;;;;;5005885;28;20729;-58
2021/07/19 00:29:29;;;;;;;7.55;4.85;;;;;;;;;;5006458;28;20191;-57
2021/07/19 00:31:54;;;;;;;9.27;5.35;;;;;;;;;;5002637;28;20203;-57
2021/07/19 00:34:19;;;;;;;9.95;5.03;;;;;;;;;;5003588;28;20221;-56
2021/07/19 00:36:49;;;;;;;9.73;4.60;;;;;;;;;;5007311;28;20489;-57
2021/07/19 00:39:14;;;;;;;6.75;4.88;;;;;;;;;;5006214;28;20901;-55
2021/07/19 00:41:40;;;;;;;8.70;5.40;;;;;;;;;;5006405;28;20234;-55
2021/07/19 00:44:06;;;;;;;8.60;4.50;;;;;;;;;;5005626;28;20203;-57
2021/07/19 00:46:31;;;;;;;9.57;4.95;;;;;;;;;;5004000;28;20625;-56
2021/07/19 00:48:57;;;;;;;9.27;5.03;;;;;;;;;;5022864;28;20211;-59
2021/07/19 00:51:22;;;;;;;8.65;5.00;;;;;;;;;;5007880;28;20293;-56
2021/07/19 00:53:47;;;;;;;9.27;5.60;;;;;;;;;;5004966;28;20204;-56
2021/07/19 00:56:13;;;;;;;9.60;5.40;;;;;;;;;;5001481;28;20214;-59
2021/07/19 00:58:40;;;;;;;7.85;5.10;;;;;;;;;;5005468;28;20211;-56
2021/07/19 01:01:06;;;;;;;7.75;4.97;;;;;;;;;;5007239;28;20498;-55
2021/07/19 01:03:32;;;;;;;7.13;4.65;;;;;;;;;;5005852;28;20293;-57
2021/07/19 01:05:58;;;;;;;7.47;5.10;;;;;;;;;;5006848;28;20181;-56
2021/07/19 01:08:25;;;;;;;12.75;5.32;;;;;;;;;;5006177;28;20195;-58
2021/07/19 01:10:50;;;;;;;9.27;5.43;;;;;;;;;;5004921;28;20257;-56
2021/07/19 01:13:15;;;;;;;10.17;5.40;;;;;;;;;;5005471;28;20615;-59
2021/07/19 01:15:41;;;;;;;11.63;5.95;;;;;;;;;;5007216;28;20436;-56
2021/07/19 01:18:07;;;;;;;6.70;4.95;;;;;;;;;;5005352;28;20183;-56
2021/07/19 01:20:42;;;;;;;7.65;4.93;;;;;;;;;;5005453;28;20187;-56
2021/07/19 01:23:11;;;;;;;7.82;5.00;;;;;;;;;;5003788;28;20207;-60
2021/07/19 01:25:42;;;;;;;8.38;5.15;;;;;;;;;;5005527;28;20214;-56
2021/07/19 01:28:27;;;;;;;9.38;5.20;;;;;;;;;;5005454;28;20183;-58
2021/07/19 01:30:52;;;;;;;8.20;4.90;;;;;;;;;;5004516;28;20207;-59
2021/07/19 01:33:18;;;;;;;11.50;5.13;;;;;;;;;;5006931;28;20202;-57
2021/07/19 01:35:45;;;;;;;7.65;4.82;;;;;;;;;;5004977;28;20711;-58
2021/07/19 01:38:11;;;;;;;8.20;4.68;;;;;;;;;;5003492;28;20187;-57
2021/07/19 01:40:36;;;;;;;9.98;5.53;;;;;;;;;;5005474;28;20592;-59
2021/07/19 01:43:02;;;;;;;10.57;4.78;;;;;;;;;;5004089;28;20692;-56
2021/07/19 01:45:27;;;;;;;8.90;4.57;;;;;;;;;;5006173;28;20191;-56
2021/07/19 01:47:53;;;;;;;11.32;4.82;;;;;;;;;;5004880;28;20171;-59
2021/07/19 01:50:19;;;;;;;11.13;5.32;;;;;;;;;;5005063;28;20601;-57
2021/07/19 01:52:45;;;;;;;9.45;5.20;;;;;;;;;;5007528;28;20530;-57
2021/07/19 01:55:11;;;;;;;9.00;5.50;;;;;;;;;;5003947;28;20171;-57
2021/07/19 01:57:36;;;;;;;9.32;4.80;;;;;;;;;;5022836;28;20184;-56
2021/07/19 02:00:04;;;;;;;9.52;5.18;;;;;;;;;;5008951;28;20662;-56
2021/07/19 02:02:29;;;;;;;7.93;5.15;;;;;;;;;;5022399;28;20430;-56
2021/07/19 02:04:55;;;;;;;7.72;5.30;;;;;;;;;;5004978;28;20210;-57
2021/07/19 02:07:22;;;;;;;11.52;5.05;;;;;;;;;;5001985;28;20431;-56
2021/07/19 02:09:49;;;;;;;10.40;5.30;;;;;;;;;;5021206;28;20184;-57
2021/07/19 02:12:15;;;;;;;9.40;4.93;;;;;;;;;;5007859;28;20207;-56
2021/07/19 02:14:41;;;;;;;11.73;5.70;;;;;;;;;;5006836;28;20429;-57
2021/07/19 02:17:07;;;;;;;11.00;5.60;;;;;;;;;;5006364;28;20187;-60
2021/07/19 02:19:33;;;;;;;9.48;5.25;;;;;;;;;;5005007;28;20192;-56
2021/07/19 02:21:59;;;;;;;9.07;4.97;;;;;;;;;;5005940;28;20210;-56
2021/07/19 02:24:27;;;;;;;11.98;5.90;;;;;;;;;;5005985;28;20212;-57
2021/07/19 02:26:53;;;;;;;9.63;5.68;;;;;;;;;;5004561;28;20183;-56
2021/07/19 02:29:18;;;;;;;8.02;5.10;;;;;;;;;;5005836;28;20210;-56
2021/07/19 02:31:43;;;;;;;9.00;5.20;;;;;;;;;;5005469;28;20207;-58
2021/07/19 02:34:09;;;;;;;12.80;5.88;;;;;;;;;;5002969;28;20195;-57
2021/07/19 02:36:34;;;;;;;9.32;5.32;;;;;;;;;;5003990;28;20235;-57
2021/07/19 02:39:00;;;;;;;9.40;4.70;;;;;;;;;;5006668;28;20446;-57
2021/07/19 02:41:26;;;;;;;9.63;5.35;;;;;;;;;;5009424;28;20739;-56
2021/07/19 02:43:53;;;;;;;9.70;5.05;;;;;;;;;;5008803;28;20203;-56
2021/07/19 02:46:22;;;;;;;8.70;4.75;;;;;;;;;;5005539;28;20183;-58
2021/07/19 02:48:49;;;;;;;6.15;3.97;;;;;;;;;;5010211;28;20180;-56
2021/07/19 02:51:15;;;;;;;10.57;5.35;;;;;;;;;;5007122;28;20204;-58
2021/07/19 02:53:40;;;;;;;11.65;5.22;;;;;;;;;;5009291;28;20546;-57
2021/07/19 02:56:06;;;;;;;10.18;4.90;;;;;;;;;;5010772;28;20183;-56
2021/07/19 02:58:31;;;;;;;8.35;4.80;;;;;;;;;;5007112;28;20229;-57
2021/07/19 03:00:58;;;;;;;8.30;4.43;;;;;;;;;;5008542;28;20677;-57
2021/07/19 03:03:28;;;;;;;12.18;4.45;;;;;;;;;;5005875;28;20298;-57
2021/07/19 03:05:58;;;;;;;10.63;4.97;;;;;;;;;;5021131;28;20190;-61
2021/07/19 03:08:24;;;;;;;11.32;5.03;;;;;;;;;;5009846;28;20183;-57
2021/07/19 03:10:50;;;;;;;10.60;4.85;;;;;;;;;;5007610;28;20722;-58
2021/07/19 03:13:18;;;;;;;12.68;4.75;;;;;;;;;;5009177;28;20226;-56
2021/07/19 03:15:44;;;;;;;12.93;4.82;;;;;;;;;;5007981;28;20734;-58
2021/07/19 03:18:10;;;;;;;12.20;4.75;;;;;;;;;;5007797;28;20180;-57
2021/07/19 03:20:36;;;;;;;8.05;4.63;;;;;;;;;;5009076;28;20198;-60
2021/07/19 03:23:03;;;;;;;9.02;4.53;;;;;;;;;;5010109;28;20223;-58
2021/07/19 03:25:28;;;;;;;12.10;4.30;;;;;;;;;;5007189;28;20194;-56
2021/07/19 03:27:54;;;;;;;7.57;4.90;;;;;;;;;;5021887;28;20191;-57
2021/07/19 03:30:21;;;;;;;11.43;4.70;;;;;;;;;;5005689;28;20257;-55
2021/07/19 03:32:47;;;;;;;9.45;4.10;;;;;;;;;;5010450;28;20263;-59
2021/07/19 03:35:15;;;;;;;13.90;4.65;;;;;;;;;;5024503;28;20180;-59
2021/07/19 03:37:40;;;;;;;13.10;4.70;;;;;;;;;;5008357;28;20183;-58
2021/07/19 03:40:06;;;;;;;12.82;4.75;;;;;;;;;;5024777;28;20175;-58
2021/07/19 03:42:33;;;;;;;7.25;4.15;;;;;;;;;;5006276;28;20187;-56
2021/07/19 03:44:59;;;;;;;11.25;4.50;;;;;;;;;;5004164;28;20220;-56
2021/07/19 03:47:25;;;;;;;8.80;4.53;;;;;;;;;;5025912;28;20184;-59
2021/07/19 03:49:50;;;;;;;12.85;4.63;;;;;;;;;;5003661;28;20183;-57
2021/07/19 03:52:15;;;;;;;12.52;4.55;;;;;;;;;;5006407;28;20277;-56
2021/07/19 03:54:41;;;;;;;9.40;4.45;;;;;;;;;;5008932;28;20664;-57
2021/07/19 03:57:06;;;;;;;7.57;3.97;;;;;;;;;;5009327;28;20262;-57
2021/07/19 03:59:33;;;;;;;6.00;4.00;;;;;;;;;;5009284;28;20180;-57
2021/07/19 04:02:00;;;;;;;7.35;3.90;;;;;;;;;;5009247;28;20698;-57
2021/07/19 04:04:38;;;;;;;8.52;4.18;;;;;;;;;;5006582;28;20215;-57
2021/07/19 04:07:04;;;;;;;7.22;3.55;;;;;;;;;;5007708;28;20191;-55
2021/07/19 04:09:30;;;;;;;10.20;4.30;;;;;;;;;;5007873;28;20237;-56
2021/07/19 04:11:55;;;;;;;7.47;3.63;;;;;;;;;;5007404;28;20211;-57
2021/07/19 04:14:22;;;;;;;8.10;3.75;;;;;;;;;;5008041;28;20631;-56
2021/07/19 04:16:47;;;;;;;7.40;3.25;;;;;;;;;;5005313;28;20274;-57
2021/07/19 04:19:13;;;;;;;9.30;3.78;;;;;;;;;;5020455;28;20274;-56
2021/07/19 04:21:38;;;;;;;6.03;3.70;;;;;;;;;;5004961;28;20183;-56
2021/07/19 04:24:04;;;;;;;8.60;3.88;;;;;;;;;;5005591;28;20265;-56
2021/07/19 04:26:30;;;;;;;6.25;4.03;;;;;;;;;;5006201;28;20699;-56
2021/07/19 04:28:56;;;;;;;8.73;3.80;;;;;;;;;;5006334;28;20585;-57
2021/07/19 04:31:21;;;;;;;8.27;4.00;;;;;;;;;;5022500;28;20620;-58
2021/07/19 04:33:46;;;;;;;6.07;3.80;;;;;;;;;;5007402;28;20203;-57
2021/07/19 04:36:12;;;;;;;6.28;4.53;;;;;;;;;;5003358;28;20564;-58
2021/07/19 04:38:37;;;;;;;9.10;4.05;;;;;;;;;;5023883;28;20182;-56
2021/07/19 04:41:02;;;;;;;10.65;4.00;;;;;;;;;;5024519;28;20186;-56
2021/07/19 04:43:28;;;;;;;8.18;4.10;;;;;;;;;;5008758;28;20207;-58
2021/07/19 04:45:53;;;;;;;6.82;3.95;;;;;;;;;;5008133;28;20191;-57
2021/07/19 04:48:19;;;;;;;6.97;4.00;;;;;;;;;;5006144;28;20221;-57
2021/07/19 04:50:44;;;;;;;7.97;3.67;;;;;;;;;;5005656;28;20668;-55
2021/07/19 04:53:10;;;;;;;6.40;3.15;;;;;;;;;;5007469;28;20222;-57
2021/07/19 04:55:37;;;;;;;8.23;3.63;;;;;;;;;;5002772;28;20668;-57
2021/07/19 04:58:04;;;;;;;4.63;2.60;;;;;;;;;;5023143;28;20194;-56
2021/07/19 05:00:30;;;;;;;6.72;2.85;;;;;;;;;;5006731;28;20179;-56
2021/07/19 05:02:56;;;;;;;6.38;2.47;;;;;;;;;;5005128;28;20218;-58
2021/07/19 05:05:24;;;;;;;5.50;2.80;;;;;;;;;;5003525;28;20192;-56
2021/07/19 05:07:50;;;;;;;6.70;2.83;;;;;;;;;;5006754;28;20175;-58
2021/07/19 05:10:15;;;;;;;8.10;3.40;;;;;;;;;;5006463;28;20182;-56
2021/07/19 05:12:44;;;;;;;7.90;3.47;;;;;;;;;;5007164;28;20214;-60
2021/07/19 05:15:12;;;;;;;8.98;3.20;;;;;;;;;;5006672;28;20245;-57
2021/07/19 05:17:40;;;;;;;5.00;2.83;;;;;;;;;;5008132;28;20230;-56
2021/07/19 05:20:08;;;;;;;9.25;3.05;;;;;;;;;;5003915;28;20188;-57
2021/07/19 05:22:34;;;;;;;7.20;2.95;;;;;;;;;;5006439;28;20187;-57
2021/07/19 05:24:59;;;;;;;5.78;3.40;;;;;;;;;;5004232;28;20191;-57
2021/07/19 05:27:24;;;;;;;5.88;3.10;;;;;;;;;;5007609;28;20206;-56
2021/07/19 05:29:50;;;;;;;7.07;3.45;;;;;;;;;;5005303;28;20437;-56
2021/07/19 05:32:16;;;;;;;7.15;3.13;;;;;;;;;;5004175;28;20678;-57
2021/07/19 05:34:41;;;;;;;4.22;2.83;;;;;;;;;;5004191;28;20222;-58
2021/07/19 05:37:06;;;;;;;6.68;2.97;;;;;;;;;;5006851;28;20180;-58
2021/07/19 05:39:32;;;;;;;7.68;2.63;;;;;;;;;;5021896;28;20733;-58
2021/07/19 05:41:57;;;;;;;7.97;2.80;;;;;;;;;;5016647;28;20889;-57
2021/07/19 05:44:22;;;;;;;5.63;2.97;;;;;;;;;;4998780;28;20222;-57
2021/07/19 05:46:47;;;;;;;5.38;2.80;;;;;;;;;;5004645;28;20223;-57
2021/07/19 05:49:13;;;;;;;5.72;2.65;;;;;;;;;;5004268;28;20190;-56
2021/07/19 05:51:38;;;;;;;6.38;2.75;;;;;;;;;;5006104;28;20294;-58
2021/07/19 05:54:03;;;;;;;5.40;2.67;;;;;;;;;;5008209;28;20191;-56
2021/07/19 05:56:30;;;;;;;8.63;2.75;;;;;;;;;;5022003;28;20187;-56
2021/07/19 05:58:56;;;;;;;9.27;2.80;;;;;;;;;;5006433;28;20214;-56
2021/07/19 06:01:21;;;;;;;10.13;3.33;;;;;;;;;;5021083;28;21110;-56
2021/07/19 06:03:46;;;;;;;5.90;2.20;;;;;;;;;;5005075;28;20699;-58
2021/07/19 06:06:11;;;;;;;3.97;2.37;;;;;;;;;;5004305;28;20442;-56
2021/07/19 06:08:36;;;;;;;5.53;2.42;;;;;;;;;;5004527;28;20430;-59
2021/07/19 06:11:02;;;;;;;3.55;2.17;;;;;;;;;;5006127;28;20218;-57
2021/07/19 06:13:27;;;;;;;6.45;3.00;;;;;;;;;;5003366;28;20602;-57
2021/07/19 06:15:52;;;;;;;7.45;2.92;;;;;;;;;;5004134;28;20187;-58
2021/07/19 06:18:17;;;;;;;7.07;2.70;;;;;;;;;;5005944;28;20191;-57
2021/07/19 06:20:42;;;;;;;11.68;2.88;;;;;;;;;;5004264;28;20722;-58
2021/07/19 06:23:08;;;;;;;7.60;2.65;;;;;;;;;;5003337;28;20208;-57
2021/07/19 06:25:34;;;;;;;9.45;3.05;;;;;;;;;;5001632;28;20183;-57
2021/07/19 06:28:01;;;;;;;6.05;2.70;;;;;;;;;;5006004;28;20570;-58
2021/07/19 06:30:27;;;;;;;5.28;2.40;;;;;;;;;;5003660;28;20195;-59
2021/07/19 06:32:52;;;;;;;7.03;2.38;;;;;;;;;;5002302;28;20215;-56
2021/07/19 06:35:17;;;;;;;6.22;2.50;;;;;;;;;;5000009;28;20191;-58
2021/07/19 06:37:43;;;;;;;9.30;3.00;;;;;;;;;;5005146;28;20233;-57
2021/07/19 06:40:09;;;;;;;5.88;2.90;;;;;;;;;;4999338;28;20187;-60
2021/07/19 06:42:34;;;;;;;6.53;2.70;;;;;;;;;;5005105;28;20270;-58
2021/07/19 06:44:59;;;;;;;7.20;2.70;;;;;;;;;;5005010;28;20199;-58
2021/07/19 06:47:25;;;;;;;5.88;3.10;;;;;;;;;;5006121;28;20194;-57
2021/07/19 06:49:51;;;;;;;8.52;2.75;;;;;;;;;;5006433;28;20184;-57
2021/07/19 06:52:16;;;;;;;7.82;2.72;;;;;;;;;;5004469;28;20204;-58
2021/07/19 06:54:41;;;;;;;4.55;2.38;;;;;;;;;;5006195;28;20203;-56
2021/07/19 06:57:06;;;;;;;7.25;2.75;;;;;;;;;;5006122;28;20219;-57
2021/07/19 06:59:32;;;;;;;5.40;2.38;;;;;;;;;;5008303;28;20184;-59
2021/07/19 07:01:57;;;;;;;7.63;2.50;;;;;;;;;;5000231;28;20215;-57
2021/07/19 07:04:22;;;;;;;5.20;2.30;;;;;;;;;;5006549;28;20453;-60
2021/07/19 07:06:47;;;;;;;5.00;2.53;;;;;;;;;;5006189;28;20430;-58
2021/07/19 07:09:12;;;;;;;5.53;2.60;;;;;;;;;;4999416;28;20192;-58
2021/07/19 07:11:37;;;;;;;10.52;2.60;;;;;;;;;;4993439;28;20546;-56
2021/07/19 07:14:04;;;;;;;7.45;3.13;;;;;;;;;;5000894;28;20700;-57
2021/07/19 07:16:29;;;;;;;6.47;2.50;;;;;;;;;;5005643;28;20583;-61
2021/07/19 07:18:55;;;;;;;6.70;2.80;;;;;;;;;;5004375;28;20206;-56
2021/07/19 07:21:21;;;;;;;6.68;2.83;;;;;;;;;;5003184;28;20202;-57
2021/07/19 07:23:46;;;;;;;6.75;2.50;;;;;;;;;;5003043;28;20591;-57
2021/07/19 07:26:11;;;;;;;5.07;2.45;;;;;;;;;;4999961;28;20206;-58
2021/07/19 07:28:36;;;;;;;5.13;2.33;;;;;;;;;;5002876;28;20257;-57
2021/07/19 07:31:01;;;;;;;5.35;2.50;;;;;;;;;;5009225;28;20241;-58
2021/07/19 07:33:27;;;;;;;6.93;3.08;;;;;;;;;;5010688;28;20214;-57
2021/07/19 07:35:52;;;;;;;6.13;2.50;;;;;;;;;;5017726;28;20319;-57
2021/07/19 07:38:17;;;;;;;5.70;2.53;;;;;;;;;;5007378;28;20176;-59
2021/07/19 07:40:42;;;;;;;5.07;2.30;;;;;;;;;;5008038;28;20663;-57
2021/07/19 07:43:07;;;;;;;6.15;2.85;;;;;;;;;;5009925;28;20199;-57
2021/07/19 07:45:33;;;;;;;7.40;2.50;;;;;;;;;;5002282;28;20243;-59
2021/07/19 07:47:58;;;;;;;7.80;3.00;;;;;;;;;;5025339;28;20432;-58
2021/07/19 07:50:23;;;;;;;5.35;2.58;;;;;;;;;;5006747;28;20183;-57
2021/07/19 07:52:48;;;;;;;7.32;2.50;;;;;;;;;;5007095;28;20222;-58
2021/07/19 07:55:13;;;;;;;8.27;2.45;;;;;;;;;;5007810;28;20179;-56
2021/07/19 07:57:39;;;;;;;8.10;2.45;;;;;;;;;;5007491;28;20199;-58
2021/07/19 08:00:09;;;;;;;5.85;2.55;;;;;;;;;;5006366;28;20214;-59
2021/07/19 08:02:34;;;;;;;8.40;2.83;;;;;;;;;;5005327;28;20199;-59
2021/07/19 08:04:59;;;;;;;5.80;2.47;;;;;;;;;;5020364;28;20200;-58
2021/07/19 08:07:25;;;;;;;6.95;2.45;;;;;;;;;;5021474;28;20277;-57
2021/07/19 08:09:50;;;;;;;5.88;2.35;;;;;;;;;;5008148;28;20427;-58
2021/07/19 08:12:15;;;;;;;3.45;2.55;;;;;;;;;;5007852;28;20249;-57
2021/07/19 08:14:40;;;;;;;6.90;2.40;;;;;;;;;;5006811;28;20262;-57
2021/07/19 08:17:06;;;;;;;7.37;2.60;;;;;;;;;;5010187;28;20777;-56
2021/07/19 08:19:33;;;;;;;7.30;2.80;;;;;;;;;;5005373;28;20607;-58
2021/07/19 08:22:00;;;;;;;6.50;2.55;;;;;;;;;;5020118;28;20190;-56
2021/07/19 08:24:25;;;;;;;6.55;2.95;;;;;;;;;;5006495;28;20396;-57
2021/07/19 08:26:50;;;;;;;7.00;2.40;;;;;;;;;;5005047;28;20187;-56
2021/07/19 08:29:15;;;;;;;11.20;2.53;;;;;;;;;;5019596;28;20985;-57
2021/07/19 08:31:44;;;;;;;7.40;2.70;;;;;;;;;;5016744;28;20466;-57
2021/07/19 08:34:09;;;;;;;8.68;3.22;;;;;;;;;;5007538;28;20203;-57
2021/07/19 08:36:35;;;;;;;6.60;2.70;;;;;;;;;;5005657;28;20213;-56
2021/07/19 08:39:00;;;;;;;6.03;2.80;;;;;;;;;;5008141;28;20199;-57
2021/07/19 08:41:25;;;;;;;4.97;2.53;;;;;;;;;;5006298;28;20192;-57
2021/07/19 08:43:50;;;;;;;4.93;2.47;;;;;;;;;;5004146;28;20605;-56
2021/07/19 08:46:15;;;;;;;6.35;2.60;;;;;;;;;;5006019;28;20195;-57
2021/07/19 08:48:41;;;;;;;5.43;2.55;;;;;;;;;;5006908;28;20187;-57
2021/07/19 08:51:06;;;;;;;5.05;2.55;;;;;;;;;;5005561;28;20222;-57
2021/07/19 08:53:32;;;;;;;3.78;2.03;;;;;;;;;;5004592;28;20207;-60
2021/07/19 08:55:58;;;;;;;5.88;2.50;;;;;;;;;;5006234;28;20615;-57
2021/07/19 08:58:23;;;;;;;9.37;2.70;;;;;;;;;;5007380;28;20192;-56
2021/07/19 09:00:49;;;;;;;6.53;2.72;;;;;;;;;;5003576;28;20442;-56
2021/07/19 09:03:15;;;;;;;4.18;2.42;;;;;;;;;;5008649;28;20242;-56
2021/07/19 09:05:40;;;;;;;7.53;3.03;;;;;;;;;;5004774;28;20183;-59
2021/07/19 09:08:05;;;;;;;6.78;2.40;;;;;;;;;;5005329;28;20206;-57
2021/07/19 09:10:31;;;;;;;5.60;2.53;;;;;;;;;;5007087;28;20926;-56
2021/07/19 09:13:00;;;;;;;4.90;2.35;;;;;;;;;;5006801;28;20207;-59
2021/07/19 09:15:30;;;;;;;4.25;2.20;;;;;;;;;;5005787;28;20190;-56
2021/07/19 09:17:56;;;;;;;5.50;2.30;;;;;;;;;;5007067;28;20195;-58
2021/07/19 09:20:27;;;;;;;6.55;2.70;;;;;;;;;;5022640;28;21369;-57
2021/07/19 09:22:52;;;;;;;6.47;2.75;;;;;;;;;;5003616;28;20201;-57
2021/07/19 09:25:18;;;;;;;5.13;2.60;;;;;;;;;;5003248;28;20637;-58
2021/07/19 09:28:02;;;;;;;5.25;2.80;;;;;;;;;;5004256;28;20186;-59
2021/07/19 09:30:28;;;;;;;6.72;2.85;;;;;;;;;;5003668;28;20683;-58
2021/07/19 09:32:56;;;;;;;8.25;3.10;;;;;;;;;;5006147;28;20246;-57
2021/07/19 09:35:21;;;;;;;7.68;3.75;;;;;;;;;;5021659;28;20220;-57
2021/07/19 09:37:47;;;;;;;6.93;2.60;;;;;;;;;;5018015;28;20651;-58
2021/07/19 09:40:13;;;;;;;4.80;2.50;;;;;;;;;;5022428;28;20326;-59
2021/07/19 09:42:42;;;;;;;5.80;2.90;;;;;;;;;;5006928;28;20290;-58
2021/07/19 09:45:08;;;;;;;8.98;2.92;;;;;;;;;;5001566;28;20183;-60
2021/07/19 09:47:37;;;;;;;6.30;2.85;;;;;;;;;;5007818;28;20229;-61
2021/07/19 09:50:08;;;;;;;15.20;5.93;;;;;;;;;;5003728;28;20843;-58
2021/07/19 09:52:34;;;;;;;7.80;3.17;;;;;;;;;;4999550;28;20218;-59
2021/07/19 09:54:59;;;;;;;7.20;3.13;;;;;;;;;;5003087;28;20180;-58
2021/07/19 09:57:24;;;;;;;6.45;3.10;;;;;;;;;;5004722;28;20282;-57
2021/07/19 09:59:51;;;;;;;40.73;11.40;;;;;;;;;;5007329;28;20710;-58
2021/07/19 10:02:35;;;;;;;12.93;4.90;;;;;;;;;;5009095;28;20419;-57
2021/07/19 10:05:01;;;;;;;4.72;2.67;;;;;;;;;;5006035;28;20205;-56
2021/07/19 10:07:26;;;;;;;6.10;2.88;;;;;;;;;;5004593;28;20819;-59
2021/07/19 10:09:58;;;;;;;5.97;2.60;;;;;;;;;;5004506;28;20198;-59
2021/07/19 10:12:24;;;;;;;7.45;2.83;;;;;;;;;;5002946;28;20222;-58
2021/07/19 10:14:49;;;;;;;6.45;2.80;;;;;;;;;;5005771;28;20763;-57
2021/07/19 10:17:15;;;;;;;7.80;3.00;;;;;;;;;;5005736;28;20264;-58
2021/07/19 10:19:41;;;;;;;7.22;3.15;;;;;;;;;;5003849;28;20218;-58
2021/07/19 10:22:06;;;;;;;5.05;3.00;;;;;;;;;;5004415;28;20261;-59
2021/07/19 10:24:32;;;;;;;3.83;2.50;;;;;;;;;;5016468;28;20203;-60
2021/07/19 10:26:58;;;;;;;9.15;3.40;;;;;;;;;;5004452;28;20207;-57
2021/07/19 10:29:23;;;;;;;5.38;2.95;;;;;;;;;;5009021;28;20537;-59
2021/07/19 10:31:48;;;;;;;4.55;3.10;;;;;;;;;;5006997;28;20211;-59
2021/07/19 10:34:17;;;;;;;6.63;2.97;;;;;;;;;;5006857;28;20723;-57
2021/07/19 10:36:50;;;;;;;5.55;2.90;;;;;;;;;;5003892;28;20206;-57
2021/07/19 10:39:35;;;;;;;4.05;2.80;;;;;;;;;;5019945;28;20554;-58
2021/07/19 10:42:02;;;;;;;4.00;3.05;;;;;;;;;;5004037;28;20207;-59
2021/07/19 10:44:30;;;;;;;6.60;3.63;;;;;;;;;;4999504;28;20204;-59
2021/07/19 10:46:57;;;;;;;4.68;3.10;;;;;;;;;;5006920;28;20262;-58
2021/07/19 10:49:28;;;;;;;6.55;3.72;;;;;;;;;;5005089;28;20219;-56
2021/07/19 10:51:53;;;;;;;7.68;3.22;;;;;;;;;;5005341;28;20221;-59
2021/07/19 10:54:19;;;;;;;5.28;3.28;;;;;;;;;;5001362;28;20233;-57
2021/07/19 10:56:45;;;;;;;5.68;3.28;;;;;;;;;;5004213;28;20186;-57
2021/07/19 10:59:21;;;;;;;5.72;2.90;;;;;;;;;;5007142;28;20840;-60
2021/07/19 11:01:53;;;;;;;7.97;3.20;;;;;;;;;;5005863;28;20183;-59
2021/07/19 11:04:19;;;;;;;6.88;3.33;;;;;;;;;;5007168;28;20199;-59
2021/07/19 11:06:48;;;;;;;8.25;3.50;;;;;;;;;;5006942;28;20214;-58
2021/07/19 11:09:14;;;;;;;5.70;3.00;;;;;;;;;;5023958;28;20263;-60
2021/07/19 11:11:40;;;;;;;4.00;3.10;;;;;;;;;;5006919;28;20238;-61
2021/07/19 11:14:07;;;;;;;5.38;3.50;;;;;;;;;;5008708;28;20214;-60
2021/07/19 11:16:42;;;;;;;7.32;2.88;;;;;;;;;;5009136;28;20183;-60
2021/07/19 11:19:08;;;;;;;5.95;3.05;;;;;;;;;;5011860;28;20179;-60
2021/07/19 11:21:34;;;;;;;4.18;3.08;;;;;;;;;;5010534;28;20187;-57
2021/07/19 11:24:06;;;;;;;4.10;3.00;;;;;;;;;;5006422;28;20235;-58
2021/07/19 11:26:32;;;;;;;3.65;2.72;;;;;;;;;;5023592;28;20269;-58
2021/07/19 11:28:58;;;;;;;5.18;3.22;;;;;;;;;;5008263;28;20877;-58
2021/07/19 11:31:27;;;;;;;7.15;3.10;;;;;;;;;;5010356;28;20741;-57
2021/07/19 11:34:02;;;;;;;4.22;3.28;;;;;;;;;;5010706;28;20301;-60
2021/07/19 11:36:29;;;;;;;5.07;3.35;;;;;;;;;;4999563;28;20179;-59
2021/07/19 11:38:56;;;;;;;4.47;3.22;;;;;;;;;;5009285;28;20180;-61
2021/07/19 11:41:23;;;;;;;4.95;3.00;;;;;;;;;;5010074;28;20190;-57
2021/07/19 11:43:49;;;;;;;6.32;3.42;;;;;;;;;;5009397;28;20659;-60
2021/07/19 11:46:24;;;;;;;5.85;2.90;;;;;;;;;;5011291;28;20194;-59
2021/07/19 11:48:49;;;;;;;4.95;2.97;;;;;;;;;;5008659;28;20228;-59
2021/07/19 11:51:14;;;;;;;5.13;3.15;;;;;;;;;;5024350;28;20195;-58
2021/07/19 11:53:41;;;;;;;5.95;3.25;;;;;;;;;;5005614;28;20208;-58
2021/07/19 11:56:06;;;;;;;8.10;3.28;;;;;;;;;;5003637;28;20187;-59
2021/07/19 11:58:31;;;;;;;5.80;3.10;;;;;;;;;;5009067;28;20183;-59
2021/07/19 12:01:00;;;;;;;4.65;3.10;;;;;;;;;;5006806;28;20191;-59
2021/07/19 12:03:27;;;;;;;4.68;3.15;;;;;;;;;;5008351;28;20564;-61
2021/07/19 12:05:53;;;;;;;5.25;3.05;;;;;;;;;;5006773;28;20195;-60
2021/07/19 12:08:29;;;;;;;4.20;3.05;;;;;;;;;;5007155;28;20192;-58
2021/07/19 12:10:58;;;;;;;5.28;3.22;;;;;;;;;;5006974;28;20195;-59
2021/07/19 12:13:23;;;;;;;5.43;3.20;;;;;;;;;;5007456;28;20207;-59
2021/07/19 12:15:57;;;;;;;4.07;2.90;;;;;;;;;;5008672;28;20186;-58
2021/07/19 12:18:33;;;;;;;5.80;3.03;;;;;;;;;;5005127;28;20187;-58
2021/07/19 12:21:00;;;;;;;5.13;3.35;;;;;;;;;;5003027;28;20191;-64
2021/07/19 12:23:35;;;;;;;9.05;3.67;;;;;;;;;;5005197;28;20218;-60
2021/07/19 12:26:00;;;;;;;13.45;3.25;;;;;;;;;;5004470;28;20187;-58
2021/07/19 12:28:25;;;;;;;4.50;3.10;;;;;;;;;;5024066;28;20392;-59
2021/07/19 12:30:51;;;;;;;4.90;3.70;;;;;;;;;;5021456;28;20217;-59
2021/07/19 12:33:21;;;;;;;6.18;3.42;;;;;;;;;;5000341;28;20461;-60
2021/07/19 12:35:49;;;;;;;5.70;3.40;;;;;;;;;;5001719;28;20184;-60
2021/07/19 12:38:14;;;;;;;3.85;3.33;;;;;;;;;;5007171;28;20819;-60
2021/07/19 12:40:39;;;;;;;9.23;3.60;;;;;;;;;;5006081;28;20192;-58
2021/07/19 12:43:05;;;;;;;4.75;3.25;;;;;;;;;;5007170;28;20195;-60
2021/07/19 12:45:30;;;;;;;4.65;3.50;;;;;;;;;;5006751;28;20183;-61
2021/07/19 12:47:57;;;;;;;5.40;3.63;;;;;;;;;;5003814;28;20187;-60
2021/07/19 12:50:22;;;;;;;5.70;3.70;;;;;;;;;;5002309;28;20410;-60
2021/07/19 12:52:47;;;;;;;6.93;4.15;;;;;;;;;;5006728;28;20723;-59
2021/07/19 12:55:19;;;;;;;9.10;3.83;;;;;;;;;;5007168;28;20192;-60
2021/07/19 12:57:49;;;;;;;7.03;4.03;;;;;;;;;;5009735;28;20543;-59
2021/07/19 13:00:16;;;;;;;5.10;3.35;;;;;;;;;;5007501;28;20758;-60
2021/07/19 13:02:42;;;;;;;5.10;3.72;;;;;;;;;;5019028;28;20188;-61
2021/07/19 13:05:10;;;;;;;5.05;3.90;;;;;;;;;;5001036;28;20199;-60
2021/07/19 13:07:36;;;;;;;5.25;3.65;;;;;;;;;;5007303;28;20187;-58
2021/07/19 13:10:09;;;;;;;8.07;4.18;;;;;;;;;;5001771;28;20193;-59
2021/07/19 13:12:35;;;;;;;7.75;4.40;;;;;;;;;;5006570;28;20203;-60
2021/07/19 13:15:05;;;;;;;4.75;3.55;;;;;;;;;;5005389;28;20693;-61
2021/07/19 13:17:31;;;;;;;5.45;3.92;;;;;;;;;;5005861;28;20238;-61
2021/07/19 13:20:03;;;;;;;12.23;4.10;;;;;;;;;;5006145;28;20175;-60
2021/07/19 13:22:29;;;;;;;6.15;4.32;;;;;;;;;;5005794;28;20211;-59
2021/07/19 13:24:54;;;;;;;7.43;4.45;;;;;;;;;;5006250;28;20239;-61
2021/07/19 13:27:19;;;;;;;6.38;4.00;;;;;;;;;;5009659;28;20175;-60
2021/07/19 13:29:49;;;;;;;6.32;4.82;;;;;;;;;;5008297;28;20284;-59
2021/07/19 13:32:16;;;;;;;7.15;4.30;;;;;;;;;;5002267;28;20210;-59
2021/07/19 13:34:41;;;;;;;8.40;5.03;;;;;;;;;;5023964;28;20199;-60
2021/07/19 13:37:06;;;;;;;7.10;4.50;;;;;;;;;;5006744;28;20659;-60
2021/07/19 13:39:32;;;;;;;6.80;4.00;;;;;;;;;;5006616;28;20483;-61
2021/07/19 13:42:00;;;;;;;6.88;4.07;;;;;;;;;;5006011;28;20183;-61
2021/07/19 13:44:25;;;;;;;6.95;4.20;;;;;;;;;;5006348;28;20208;-60
2021/07/19 13:46:51;;;;;;;5.03;4.10;;;;;;;;;;5005771;28;20248;-59
2021/07/19 13:49:16;;;;;;;6.07;4.07;;;;;;;;;;5006305;28;20446;-59
2021/07/19 13:51:41;;;;;;;9.33;4.53;;;;;;;;;;5020248;28;20462;-60
2021/07/19 13:54:06;;;;;;;6.47;4.77;;;;;;;;;;5007897;28;20449;-60
2021/07/19 13:56:34;;;;;;;7.43;5.37;;;;;;;;;;5005667;28;20450;-59
2021/07/19 13:58:59;;;;;;;7.75;4.90;;;;;;;;;;5005917;28;20418;-60
2021/07/19 14:01:24;;;;;;;5.53;4.37;;;;;;;;;;5006592;28;20191;-62
2021/07/19 14:03:49;;;;;;;8.27;5.00;;;;;;;;;;5006348;28;20517;-60
2021/07/19 14:06:15;;;;;;;6.73;5.23;;;;;;;;;;5008344;28;20779;-60
2021/07/19 14:08:41;;;;;;;9.20;4.93;;;;;;;;;;5001611;28;20442;-60
2021/07/19 14:11:06;;;;;;;8.38;4.95;;;;;;;;;;5005659;28;20207;-60
2021/07/19 14:13:31;;;;;;;9.15;5.15;;;;;;;;;;5005077;28;20342;-60
2021/07/19 14:15:56;;;;;;;9.02;5.57;;;;;;;;;;5012880;28;20265;-60
2021/07/19 14:18:23;;;;;;;6.13;5.22;;;;;;;;;;5007045;28;20271;-61
2021/07/19 14:20:48;;;;;;;11.60;5.40;;;;;;;;;;5008115;28;20266;-60
2021/07/19 14:23:14;;;;;;;11.70;5.97;;;;;;;;;;5007502;28;20653;-60
2021/07/19 14:25:40;;;;;;;11.77;5.47;;;;;;;;;;5022404;28;20656;-60
2021/07/19 14:28:05;;;;;;;8.10;4.97;;;;;;;;;;5007215;28;20179;-62
2021/07/19 14:30:30;;;;;;;8.25;5.28;;;;;;;;;;5005711;28;20184;-58
2021/07/19 14:32:56;;;;;;;12.02;5.50;;;;;;;;;;5021538;28;20243;-58
2021/07/19 14:35:22;;;;;;;10.07;5.18;;;;;;;;;;5023307;28;20265;-56